createdAt,value
2023-03-15T00:05:02.178Z,5.30
2023-03-15T00:11:12.092Z,4.60
2023-03-15T00:17:14.005Z,2.30
2023-03-15T00:23:16.032Z,3.10
2023-03-15T00:29:17.973Z,4.10
2023-03-15T00:35:20.687Z,5.60
2023-03-15T00:41:23.243Z,7.10
2023-03-15T00:47:25.307Z,8.00
2023-03-15T00:53:28.249Z,9.40
2023-03-15T00:59:34.678Z,6.90
2023-03-15T01:05:36.591Z,8.80
2023-03-15T01:11:38.306Z,6.00
2023-03-15T01:17:42.158Z,6.70
2023-03-15T01:23:44.276Z,5.90
2023-03-15T01:29:45.843Z,5.50
2023-03-15T01:35:48.740Z,5.40
2023-03-15T01:41:50.575Z,2.90
2023-03-15T01:47:52.783Z,2.90
2023-03-15T01:54:05.196Z,3.70
2023-03-15T02:00:19.238Z,3.30
2023-03-15T02:06:34.375Z,3.40
2023-03-15T02:12:41.511Z,1.50
2023-03-15T02:18:44.026Z,1.60
2023-03-15T02:25:21.304Z,1.70
2023-03-15T02:31:23.423Z,2.40
2023-03-15T02:37:25.511Z,2.60
2023-03-15T02:43:31.850Z,3.00
2023-03-15T02:49:39.962Z,4.40
2023-03-15T02:55:42.525Z,2.40
2023-03-15T03:01:45.207Z,3.00
2023-03-15T03:07:49.492Z,2.00
2023-03-15T03:13:51.109Z,4.40
2023-03-15T03:19:53.970Z,1.80
2023-03-15T03:26:01.582Z,2.10
2023-03-15T03:32:03.983Z,2.10
2023-03-15T03:38:07.932Z,4.90
2023-03-15T03:44:13.272Z,3.70
2023-03-15T03:50:15.851Z,3.40
2023-03-15T03:56:17.508Z,9.10
2023-03-15T04:02:19.577Z,4.90
2023-03-15T04:08:31.288Z,7.20
2023-03-15T04:14:33.444Z,6.80
2023-03-15T04:20:35.323Z,4.30
2023-03-15T04:26:37.486Z,4.70
2023-03-15T04:33:02.736Z,6.20
2023-03-15T04:39:23.033Z,5.50
2023-03-15T04:45:42.306Z,6.80
2023-03-15T04:52:07.399Z,7.20
2023-03-15T04:58:27.420Z,5.80
2023-03-15T05:04:55.196Z,6.70
2023-03-15T05:11:08.579Z,10.40
2023-03-15T05:17:27.297Z,7.10
2023-03-15T05:23:38.229Z,5.20
2023-03-15T05:29:50.739Z,6.10
2023-03-15T05:36:13.881Z,5.60
2023-03-15T05:42:35.380Z,7.70
2023-03-15T05:48:55.609Z,7.70
2023-03-15T05:55:20.760Z,7.80
2023-03-15T06:02:09.289Z,6.40
2023-03-15T06:08:19.416Z,6.60
2023-03-15T06:14:22.569Z,5.80
2023-03-15T06:20:29.042Z,11.80
2023-03-15T06:26:32.015Z,10.60
2023-03-15T06:32:36.959Z,8.10
2023-03-15T06:38:39.463Z,7.50
2023-03-15T06:44:43.871Z,9.70
2023-03-15T06:57:00.724Z,11.60
2023-03-15T07:03:08.154Z,10.60
2023-03-15T07:09:16.951Z,10.30
2023-03-15T07:15:18.826Z,7.80
2023-03-15T07:21:25.157Z,6.50
2023-03-15T07:27:29.439Z,7.50
2023-03-15T07:33:35.150Z,14.70
2023-03-15T07:39:36.680Z,10.80
2023-03-15T07:45:38.287Z,8.50
2023-03-15T07:51:39.803Z,10.70
2023-03-15T07:57:41.358Z,7.00
2023-03-15T08:03:43.140Z,8.90
2023-03-15T08:09:45.643Z,8.40
2023-03-15T08:15:49.688Z,9.40
2023-03-15T08:21:53.228Z,10.80
2023-03-15T08:27:54.935Z,7.80
2023-03-15T08:33:56.713Z,6.90
2023-03-15T08:40:04.169Z,8.00
2023-03-15T08:46:05.817Z,11.90
2023-03-15T08:52:07.879Z,10.50
2023-03-15T08:58:09.434Z,6.90
2023-03-15T09:04:11.212Z,10.00
2023-03-15T09:10:32.466Z,9.00
2023-03-15T09:16:43.545Z,10.70
2023-03-15T09:22:54.538Z,4.90
2023-03-15T09:28:58.710Z,9.80
2023-03-15T09:35:00.266Z,12.90
2023-03-15T09:41:03.158Z,10.90
2023-03-15T09:47:23.410Z,9.30
2023-03-15T09:53:31.464Z,6.90
2023-03-15T09:59:35.807Z,8.60
2023-03-15T10:05:43.065Z,7.90
2023-03-15T10:11:50.007Z,5.80
2023-03-15T10:17:57.744Z,9.20
2023-03-15T10:24:00.691Z,8.60
2023-03-15T10:30:14.965Z,5.30
2023-03-15T10:36:19.492Z,4.90
2023-03-15T10:42:30.486Z,9.30
2023-03-15T10:48:34.364Z,9.00
2023-03-15T10:54:36.013Z,5.60
2023-03-15T11:00:37.640Z,6.30
2023-03-15T11:06:46.363Z,3.70
2023-03-15T11:12:48.052Z,6.20
2023-03-15T11:19:03.261Z,5.70
2023-03-15T11:25:11.437Z,5.60
2023-03-15T11:31:13.527Z,5.90
2023-03-15T11:37:39.364Z,5.50
2023-03-15T11:43:49.062Z,5.00
2023-03-15T11:49:55.613Z,6.60
2023-03-15T11:56:18.920Z,8.90
2023-03-15T12:02:20.672Z,3.70
2023-03-15T12:08:41.044Z,3.80
2023-03-15T12:14:44.287Z,3.70
2023-03-15T12:21:05.908Z,3.90
2023-03-15T12:27:18.684Z,4.40
2023-03-15T12:33:21.788Z,4.90
2023-03-15T12:39:45.767Z,2.30
2023-03-15T12:45:47.682Z,4.90
2023-03-15T12:52:00.722Z,4.10
2023-03-15T12:58:02.568Z,5.30
2023-03-15T13:04:04.284Z,5.30
2023-03-15T13:10:19.044Z,6.70
2023-03-15T13:16:35.381Z,6.20
2023-03-15T13:23:05.657Z,4.20
2023-03-15T13:29:14.464Z,7.00
2023-03-15T13:35:23.378Z,4.60
2023-03-15T13:41:27.776Z,4.30
2023-03-15T13:47:30.598Z,2.80
2023-03-15T13:53:48.634Z,4.30
2023-03-15T14:00:10.406Z,3.50
2023-03-15T14:06:21.146Z,3.50
2023-03-15T14:12:22.644Z,6.30
2023-03-15T14:18:38.806Z,4.80
2023-03-15T14:24:42.295Z,6.10
2023-03-15T14:30:51.488Z,4.60
2023-03-15T14:36:59.140Z,3.80
2023-03-15T14:43:02.146Z,5.40
2023-03-15T14:49:04.516Z,5.00
2023-03-15T14:55:08.557Z,4.30
2023-03-15T15:01:15.657Z,5.80
2023-03-15T15:07:19.662Z,5.50
2023-03-15T15:13:27.112Z,4.70
2023-03-15T15:19:28.600Z,4.60
2023-03-15T15:25:33.110Z,4.70
2023-03-15T15:31:34.680Z,6.70
2023-03-15T15:37:36.335Z,3.30
2023-03-15T15:43:37.943Z,3.70
2023-03-15T15:49:41.433Z,6.60
2023-03-15T15:55:43.639Z,3.00
2023-03-15T16:01:59.441Z,5.20
2023-03-15T16:08:03.586Z,6.40
2023-03-15T16:14:06.716Z,4.00
2023-03-15T16:20:10.952Z,8.30
2023-03-15T16:26:14.793Z,6.70
2023-03-15T16:32:32.960Z,4.60
2023-03-15T16:38:41.837Z,8.50
2023-03-15T16:44:43.892Z,8.60
2023-03-15T16:50:45.924Z,5.00
2023-03-15T16:56:48.171Z,4.10
2023-03-15T17:02:53.652Z,5.00
2023-03-15T17:09:01.112Z,5.90
2023-03-15T17:15:04.339Z,5.80
2023-03-15T17:21:07.648Z,7.70
2023-03-15T17:27:21.576Z,7.70
2023-03-15T17:33:25.478Z,7.80
2023-03-15T17:39:27.234Z,7.20
2023-03-15T17:45:31.363Z,8.80
2023-03-15T17:51:35.900Z,7.60
2023-03-15T17:57:40.455Z,9.10
2023-03-15T18:03:52.896Z,9.20
2023-03-15T18:09:56.259Z,5.30
2023-03-15T18:16:06.251Z,15.50
2023-03-15T18:22:14.712Z,7.90
2023-03-15T18:28:18.340Z,4.80
2023-03-15T18:34:23.605Z,7.60
2023-03-15T18:40:32.650Z,9.50
2023-03-15T18:46:36.260Z,11.70
2023-03-15T18:52:38.457Z,7.40
2023-03-15T18:58:40.267Z,10.00
2023-03-15T19:04:44.340Z,13.40
2023-03-15T19:10:46.771Z,16.00
2023-03-15T19:16:50.676Z,17.50
2023-03-15T19:22:52.664Z,12.90
2023-03-15T19:28:57.006Z,12.70
2023-03-15T19:34:58.687Z,16.00
2023-03-15T19:41:04.820Z,14.10
2023-03-15T19:53:16.074Z,11.10
2023-03-15T19:59:18.925Z,12.10
2023-03-15T20:05:21.390Z,13.60
2023-03-15T20:11:28.579Z,20.90
2023-03-15T20:17:31.444Z,18.00
2023-03-15T20:23:34.384Z,21.40
2023-03-15T20:29:37.343Z,25.70
2023-03-15T20:35:42.781Z,29.20
2023-03-15T20:41:45.815Z,29.50
2023-03-15T20:47:47.851Z,25.80
2023-03-15T20:53:50.633Z,39.10
2023-03-15T20:59:53.004Z,38.50
2023-03-15T21:05:54.540Z,42.20
2023-03-15T21:11:57.788Z,39.20
2023-03-15T21:17:59.343Z,40.50
2023-03-15T21:24:01.663Z,41.20
2023-03-15T21:30:03.683Z,40.90
2023-03-15T21:36:06.675Z,40.30
2023-03-15T21:42:11.421Z,40.90
2023-03-15T21:48:13.467Z,36.90
2023-03-15T21:54:17.655Z,41.00
2023-03-15T22:00:20.278Z,38.60
2023-03-15T22:06:22.266Z,37.30
2023-03-15T22:12:25.068Z,44.30
2023-03-15T22:18:27.994Z,44.80
2023-03-15T22:24:35.505Z,43.60
2023-03-15T22:30:37.283Z,33.90
2023-03-15T22:36:39.002Z,35.60
2023-03-15T22:42:41.911Z,37.60
2023-03-15T22:48:43.590Z,29.50
2023-03-15T22:54:45.336Z,31.00
2023-03-15T23:00:49.833Z,26.50
2023-03-15T23:06:51.435Z,29.50
2023-03-15T23:12:52.875Z,22.20
2023-03-15T23:18:54.791Z,24.10
2023-03-15T23:24:57.321Z,23.80
2023-03-15T23:31:01.062Z,25.50
2023-03-15T23:37:05.800Z,22.10
2023-03-15T23:43:08.768Z,20.30
2023-03-15T23:49:18.016Z,19.10
2023-03-15T23:55:22.952Z,21.00
